Time;durP1;ratioP1;P1;durP2;ratioP2;P2;SDS_P1;SDS_P2;PMS_P1;PMS_P2;Temp;Humidity;BMP_temperature;BMP_pressure;BME280_temperature;BME280_humidity;BME280_pressure;Samples;Min_cycle;Max_cycle;Signal;HPM_P1;HPM_P2
2023/03/03 00:00:17;;;;;;;35.78;18.42;;;;;;;-0.01;100.00;102327.47;5049930;28;20061;-69
2023/03/03 00:02:42;;;;;;;35.50;19.38;;;;;;;-0.04;100.00;102342.53;5049877;28;20036;-69
2023/03/03 00:05:08;;;;;;;30.85;15.82;;;;;;;-0.05;100.00;102331.22;5048594;28;20068;-69
2023/03/03 00:07:33;;;;;;;31.80;15.85;;;;;;;-0.03;100.00;102331.09;5049956;28;20037;-70
2023/03/03 00:09:59;;;;;;;35.72;18.30;;;;;;;-0.09;100.00;102331.47;5050087;28;20071;-70
2023/03/03 00:12:25;;;;;;;37.05;19.33;;;;;;;-0.01;100.00;102337.94;5048307;28;20039;-70
2023/03/03 00:14:51;;;;;;;30.48;14.57;;;;;;;0.01;100.00;102343.13;5049259;28;20056;-70
2023/03/03 00:17:28;;;;;;;30.55;15.30;;;;;;;0.04;100.00;102347.34;5049387;28;20083;-69
2023/03/03 00:19:54;;;;;;;33.30;18.02;;;;;;;0.02;100.00;102349.19;5049320;28;20431;-70
2023/03/03 00:22:35;;;;;;;33.60;16.65;;;;;;;0.04;100.00;102348.19;5049601;28;20037;-70
2023/03/03 00:25:29;;;;;;;32.58;16.88;;;;;;;0.05;100.00;102354.25;5049250;28;20079;-70
2023/03/03 00:27:55;;;;;;;34.45;16.08;;;;;;;0.09;100.00;102350.53;5044008;28;20119;-70
2023/03/03 00:30:25;;;;;;;38.95;18.20;;;;;;;0.07;100.00;102358.47;5049278;28;20039;-69
2023/03/03 00:32:52;;;;;;;32.42;16.17;;;;;;;0.17;100.00;102350.91;5049273;28;20689;-69
2023/03/03 00:35:29;;;;;;;37.60;18.80;;;;;;;0.16;100.00;102371.06;5048151;28;20040;-70
2023/03/03 00:37:58;;;;;;;34.20;15.63;;;;;;;0.20;100.00;102361.22;5049353;28;20075;-69
2023/03/03 00:40:34;;;;;;;27.73;16.63;;;;;;;0.17;100.00;102359.63;5047871;28;20391;-69
2023/03/03 00:43:01;;;;;;;35.17;17.17;;;;;;;0.15;100.00;102358.88;5049333;28;20083;-70
2023/03/03 00:45:33;;;;;;;32.60;16.58;;;;;;;0.15;100.00;102342.28;5049125;28;20082;-69
2023/03/03 00:48:15;;;;;;;32.08;15.45;;;;;;;0.11;100.00;102351.28;5049056;28;20120;-69
2023/03/03 00:50:42;;;;;;;34.83;16.73;;;;;;;0.10;100.00;102357.47;5048970;28;20037;-70
2023/03/03 00:53:16;;;;;;;34.22;18.42;;;;;;;0.05;100.00;102354.25;5049156;28;20043;-69
2023/03/03 00:55:41;;;;;;;30.45;14.50;;;;;;;0.06;100.00;102366.47;5049065;28;20029;-69
2023/03/03 00:58:07;;;;;;;33.90;15.90;;;;;;;0.01;100.00;102365.88;5049006;28;20489;-69
2023/03/03 01:00:32;;;;;;;30.73;15.45;;;;;;;-0.05;100.00;102365.31;5049218;28;20120;-69
2023/03/03 01:03:02;;;;;;;35.15;15.85;;;;;;;-0.10;100.00;102362.13;5049082;28;20399;-70
2023/03/03 01:05:28;;;;;;;35.78;17.10;;;;;;;-0.13;100.00;102359.66;5048875;28;20033;-69
2023/03/03 01:07:53;;;;;;;37.33;16.77;;;;;;;-0.16;100.00;102365.06;5048932;28;20021;-69
2023/03/03 01:10:18;;;;;;;30.85;14.85;;;;;;;-0.14;100.00;102368.44;5049161;28;20040;-69
2023/03/03 01:12:44;;;;;;;32.70;16.45;;;;;;;-0.16;100.00;102372.09;5048917;28;20025;-70
2023/03/03 01:15:11;;;;;;;37.67;16.23;;;;;;;-0.21;100.00;102367.13;5048928;28;20533;-69
2023/03/03 01:17:38;;;;;;;31.17;17.80;;;;;;;-0.20;100.00;102374.06;5048657;28;20116;-70
2023/03/03 01:20:05;;;;;;;29.63;16.10;;;;;;;-0.21;100.00;102380.22;5048985;28;20028;-69
2023/03/03 01:22:30;;;;;;;31.15;15.40;;;;;;;-0.17;100.00;102379.13;5048988;28;20094;-69
2023/03/03 01:24:55;;;;;;;33.38;15.73;;;;;;;-0.19;100.00;102373.13;5048719;28;20053;-70
2023/03/03 01:27:21;;;;;;;30.77;14.57;;;;;;;-0.15;100.00;102371.19;5052339;28;20036;-70
2023/03/03 01:29:46;;;;;;;30.05;14.50;;;;;;;-0.24;100.00;102383.91;5052537;28;20040;-69
2023/03/03 01:32:12;;;;;;;32.63;16.30;;;;;;;-0.27;100.00;102389.28;5052447;28;20035;-70
2023/03/03 01:34:37;;;;;;;35.17;16.10;;;;;;;-0.28;100.00;102392.84;5052578;28;20025;-70
2023/03/03 01:37:02;;;;;;;32.88;15.23;;;;;;;-0.31;100.00;102385.16;5052669;28;20025;-70
2023/03/03 01:39:28;;;;;;;34.92;15.48;;;;;;;-0.32;100.00;102391.31;5052378;28;20075;-70
2023/03/03 01:41:53;;;;;;;29.85;13.88;;;;;;;-0.32;100.00;102390.50;5052632;28;20029;-70
2023/03/03 01:44:18;;;;;;;31.42;16.35;;;;;;;-0.33;100.00;102387.03;5052275;28;20396;-70
2023/03/03 01:47:05;;;;;;;33.67;14.90;;;;;;;-0.32;100.00;102388.72;5052176;28;20087;-69
2023/03/03 01:49:38;;;;;;;31.85;14.02;;;;;;;-0.29;100.00;102385.06;5051933;28;20032;-70
2023/03/03 01:52:13;;;;;;;27.50;15.57;;;;;;;-0.30;100.00;102396.50;5052629;28;20387;-69
2023/03/03 01:54:44;;;;;;;32.95;15.52;;;;;;;-0.31;100.00;102384.34;5052203;28;20400;-69
2023/03/03 01:57:21;;;;;;;35.13;14.73;;;;;;;-0.35;100.00;102386.28;5052161;28;20433;-69
2023/03/03 01:59:49;;;;;;;30.33;16.55;;;;;;;-0.31;100.00;102390.41;5051900;28;20033;-69
2023/03/03 02:02:15;;;;;;;27.35;13.07;;;;;;;-0.28;100.00;102397.25;5052028;28;20573;-70
2023/03/03 02:04:41;;;;;;;34.85;15.20;;;;;;;-0.34;100.00;102392.34;5052140;28;20108;-70
2023/03/03 02:07:09;;;;;;;32.42;16.02;;;;;;;-0.34;100.00;102394.97;5051855;28;20476;-70
2023/03/03 02:09:59;;;;;;;29.00;16.35;;;;;;;-0.37;100.00;102388.13;5052097;28;20037;-70
2023/03/03 02:12:34;;;;;;;32.97;15.02;;;;;;;-0.36;100.00;102386.38;5051870;28;20033;-70
2023/03/03 02:15:00;;;;;;;30.52;15.82;;;;;;;-0.37;100.00;102389.91;5051943;28;20055;-70
2023/03/03 02:17:25;;;;;;;27.65;13.00;;;;;;;-0.34;100.00;102394.97;5051920;28;20472;-69
2023/03/03 02:20:02;;;;;;;27.92;12.50;;;;;;;-0.36;100.00;102386.38;5051618;28;20040;-69
2023/03/03 02:22:37;;;;;;;28.67;12.20;;;;;;;-0.38;100.00;102385.59;5051522;28;20123;-70
2023/03/03 02:25:07;;;;;;;31.63;16.30;;;;;;;-0.38;100.00;102389.06;5051450;28;20488;-70
2023/03/03 02:27:33;;;;;;;30.92;13.45;;;;;;;-0.39;100.00;102397.88;5051479;28;20102;-69
2023/03/03 02:30:09;;;;;;;27.70;11.95;;;;;;;-0.37;100.00;102390.75;5051327;28;20036;-69
2023/03/03 02:32:35;;;;;;;31.55;14.45;;;;;;;-0.36;100.00;102389.00;5051507;28;20412;-70
2023/03/03 02:35:00;;;;;;;24.05;12.20;;;;;;;-0.35;100.00;102390.66;5051129;28;20032;-70
2023/03/03 02:37:26;;;;;;;27.77;11.45;;;;;;;-0.34;100.00;102387.09;5051126;28;20036;-70
2023/03/03 02:39:51;;;;;;;32.72;13.73;;;;;;;-0.29;100.00;102387.69;5051270;28;20032;-70
2023/03/03 02:42:24;;;;;;;31.00;14.70;;;;;;;-0.29;100.00;102387.69;5051135;28;20041;-70
2023/03/03 02:44:50;;;;;;;29.80;14.48;;;;;;;-0.33;100.00;102366.06;5051073;28;20163;-69
2023/03/03 02:47:15;;;;;;;26.08;12.55;;;;;;;-0.22;100.00;102387.25;5051128;28;20108;-69
2023/03/03 02:49:42;;;;;;;25.33;11.68;;;;;;;-0.25;100.00;102379.56;5051172;28;20094;-70
2023/03/03 02:52:10;;;;;;;26.38;14.27;;;;;;;-0.26;100.00;102390.16;5051027;28;20400;-69
2023/03/03 02:54:36;;;;;;;27.77;11.93;;;;;;;-0.29;100.00;102385.94;5050951;28;20477;-70
2023/03/03 02:57:02;;;;;;;28.27;12.63;;;;;;;-0.28;100.00;102377.13;5051097;28;20032;-70
2023/03/03 02:59:28;;;;;;;30.52;14.82;;;;;;;-0.26;100.00;102379.69;5050792;28;20615;-69
2023/03/03 03:01:53;;;;;;;31.70;17.27;;;;;;;-0.24;100.00;102380.41;5050894;28;20033;-70
2023/03/03 03:04:24;;;;;;;28.52;11.55;;;;;;;-0.22;100.00;102384.63;5050966;28;20170;-64
2023/03/03 03:06:50;;;;;;;28.15;13.57;;;;;;;-0.23;100.00;102396.06;5050676;28;20029;-64
2023/03/03 03:09:17;;;;;;;30.02;14.35;;;;;;;-0.19;100.00;102382.78;5050806;28;20045;-64
2023/03/03 03:11:43;;;;;;;24.42;11.85;;;;;;;-0.23;100.00;102387.34;5050613;28;20383;-64
2023/03/03 03:14:11;;;;;;;24.08;11.75;;;;;;;-0.30;100.00;102386.84;5050616;28;20032;-64
2023/03/03 03:16:36;;;;;;;29.40;12.68;;;;;;;-0.32;100.00;102387.88;5050664;28;20515;-64
2023/03/03 03:19:03;;;;;;;28.55;12.20;;;;;;;-0.35;100.00;102393.28;5050537;28;20028;-64
2023/03/03 03:21:29;;;;;;;32.45;14.93;;;;;;;-0.34;100.00;102394.97;5050372;28;20239;-64
2023/03/03 03:23:54;;;;;;;36.28;12.20;;;;;;;-0.40;100.00;102385.69;5050406;28;20037;-64
2023/03/03 03:26:20;;;;;;;33.55;14.73;;;;;;;-0.40;100.00;102390.09;5050135;28;20067;-64
2023/03/03 03:28:49;;;;;;;28.67;15.25;;;;;;;-0.41;100.00;102401.50;5050257;28;20139;-64
2023/03/03 03:31:15;;;;;;;27.13;12.73;;;;;;;-0.37;100.00;102403.00;5050270;28;20021;-64
2023/03/03 03:33:41;;;;;;;27.83;13.27;;;;;;;-0.41;100.00;102402.34;5050303;28;20178;-64
2023/03/03 03:36:06;;;;;;;27.13;12.85;;;;;;;-0.43;100.00;102409.44;5050063;28;20119;-64
2023/03/03 03:38:33;;;;;;;26.33;12.43;;;;;;;-0.43;100.00;102401.59;5050193;28;20032;-64
2023/03/03 03:40:59;;;;;;;27.20;13.27;;;;;;;-0.39;100.00;102397.00;5050129;28;20122;-64
2023/03/03 03:43:25;;;;;;;31.77;13.95;;;;;;;-0.50;100.00;102395.88;5050143;28;20061;-64
2023/03/03 03:45:51;;;;;;;31.90;13.32;;;;;;;-0.52;100.00;102400.34;5049942;28;20036;-64
2023/03/03 03:48:18;;;;;;;32.53;14.70;;;;;;;-0.49;100.00;102407.19;5049420;28;20021;-64
2023/03/03 03:50:43;;;;;;;29.25;13.85;;;;;;;-0.51;100.00;102402.03;5049638;28;20032;-64
2023/03/03 03:53:09;;;;;;;29.42;13.52;;;;;;;-0.51;100.00;102409.03;5048567;28;20032;-64
2023/03/03 03:55:34;;;;;;;31.08;14.52;;;;;;;-0.54;100.00;102414.47;5049916;28;20116;-64
2023/03/03 03:57:59;;;;;;;28.73;13.95;;;;;;;-0.52;100.00;102412.59;5049679;28;20475;-65
2023/03/03 04:00:25;;;;;;;23.15;10.25;;;;;;;-0.58;100.00;102405.91;5048691;28;20028;-64
2023/03/03 04:02:50;;;;;;;27.17;11.60;;;;;;;-0.54;100.00;102417.09;5049707;28;20025;-64
2023/03/03 04:05:16;;;;;;;25.55;12.05;;;;;;;-0.50;100.00;102406.34;5049770;28;20503;-64
2023/03/03 04:07:42;;;;;;;28.33;13.88;;;;;;;-0.54;100.00;102415.31;5049581;28;20043;-64
2023/03/03 04:10:08;;;;;;;36.28;12.90;;;;;;;-0.51;100.00;102420.38;5049367;28;20106;-64
2023/03/03 04:12:37;;;;;;;27.73;12.65;;;;;;;-0.54;100.00;102407.44;5049529;28;20032;-64
2023/03/03 04:15:07;;;;;;;28.77;12.93;;;;;;;-0.51;100.00;102404.63;5049470;28;20483;-64
2023/03/03 04:17:33;;;;;;;30.83;13.97;;;;;;;-0.44;100.00;102397.28;5049581;28;20025;-64
2023/03/03 04:19:58;;;;;;;28.98;13.32;;;;;;;-0.41;100.00;102398.91;5049334;28;20037;-64
2023/03/03 04:22:24;;;;;;;26.95;11.35;;;;;;;-0.40;100.00;102411.91;5049756;28;20065;-64
2023/03/03 04:24:49;;;;;;;32.20;15.82;;;;;;;-0.33;100.00;102415.03;5047921;28;20063;-64
2023/03/03 04:27:15;;;;;;;30.83;12.95;;;;;;;-0.37;100.00;102409.09;5049471;28;20391;-64
2023/03/03 04:29:41;;;;;;;30.65;12.98;;;;;;;-0.34;100.00;102410.69;5049401;28;20525;-64
2023/03/03 04:32:07;;;;;;;26.05;12.82;;;;;;;-0.35;100.00;102420.34;5049474;28;20139;-64
2023/03/03 04:34:32;;;;;;;25.08;12.68;;;;;;;-0.36;100.00;102423.91;5049266;28;20029;-64
2023/03/03 04:36:58;;;;;;;30.83;14.63;;;;;;;-0.35;100.00;102420.34;5049445;28;20040;-64
2023/03/03 04:39:23;;;;;;;36.13;14.35;;;;;;;-0.37;100.00;102413.50;5049575;28;20079;-64
2023/03/03 04:41:48;;;;;;;30.67;13.57;;;;;;;-0.32;100.00;102416.69;5049167;28;20029;-64
2023/03/03 04:44:14;;;;;;;37.53;16.85;;;;;;;-0.30;100.00;102417.47;5049182;28;20032;-64
2023/03/03 04:46:39;;;;;;;26.77;12.88;;;;;;;-0.28;100.00;102416.44;5049481;28;20033;-64
2023/03/03 04:49:07;;;;;;;30.98;11.73;;;;;;;-0.24;100.00;102417.97;5049233;28;20035;-64
2023/03/03 04:51:33;;;;;;;31.98;12.98;;;;;;;-0.22;100.00;102412.63;5049350;28;20380;-64
2023/03/03 04:53:58;;;;;;;32.20;13.07;;;;;;;-0.17;100.00;102413.22;5049228;28;20036;-64
2023/03/03 04:56:23;;;;;;;31.25;13.05;;;;;;;-0.22;100.00;102402.97;5048837;28;20086;-64
2023/03/03 04:58:49;;;;;;;30.55;13.10;;;;;;;-0.12;100.00;102416.41;5049179;28;20045;-64
2023/03/03 05:01:14;;;;;;;31.40;15.68;;;;;;;-0.07;100.00;102410.91;5052808;28;20041;-64
2023/03/03 05:03:40;;;;;;;34.47;14.10;;;;;;;-0.06;100.00;102409.97;5053074;28;20052;-65
2023/03/03 05:06:06;;;;;;;30.50;14.13;;;;;;;-0.07;100.00;102406.50;5053158;28;20025;-64
2023/03/03 05:08:32;;;;;;;26.25;11.98;;;;;;;-0.03;100.00;102409.78;5053179;28;20032;-64
2023/03/03 05:10:58;;;;;;;36.58;14.70;;;;;;;-0.01;100.00;102414.00;5052866;28;20020;-64
2023/03/03 05:13:24;;;;;;;34.78;14.38;;;;;;;0.02;100.00;102417.38;5052937;28;20148;-64
2023/03/03 05:15:51;;;;;;;34.65;13.52;;;;;;;0.03;100.00;102412.06;5052902;28;20139;-64
2023/03/03 05:18:20;;;;;;;26.98;11.52;;;;;;;0.05;100.00;102415.44;5052667;28;20032;-64
2023/03/03 05:20:46;;;;;;;30.35;14.82;;;;;;;0.05;100.00;102418.03;5052950;28;20037;-64
2023/03/03 05:23:12;;;;;;;31.63;13.57;;;;;;;0.06;100.00;102421.53;5052685;28;20083;-64
2023/03/03 05:25:40;;;;;;;30.45;14.68;;;;;;;0.09;100.00;102421.34;5052516;28;20052;-64
2023/03/03 05:28:06;;;;;;;31.90;13.27;;;;;;;0.09;100.00;102430.06;5052568;28;20024;-64
2023/03/03 05:30:31;;;;;;;30.77;13.82;;;;;;;0.10;100.00;102417.78;5052548;28;20025;-64
2023/03/03 05:32:58;;;;;;;28.98;14.48;;;;;;;0.11;100.00;102414.25;5052487;28;20075;-65
2023/03/03 05:35:24;;;;;;;31.17;13.57;;;;;;;0.15;100.00;102424.44;5052496;28;20120;-64
2023/03/03 05:37:49;;;;;;;33.78;14.15;;;;;;;0.17;100.00;102430.47;5052348;28;20123;-64
2023/03/03 05:40:15;;;;;;;32.33;14.65;;;;;;;0.20;100.00;102426.81;5052695;28;20503;-64
2023/03/03 05:42:40;;;;;;;36.92;14.20;;;;;;;0.21;100.00;102425.91;5052370;28;20443;-64
2023/03/03 05:45:06;;;;;;;27.90;11.73;;;;;;;0.24;100.00;102427.47;5052694;28;20082;-64
2023/03/03 05:47:31;;;;;;;31.52;14.73;;;;;;;0.22;100.00;102424.94;5052305;28;20033;-64
2023/03/03 05:49:57;;;;;;;31.38;13.82;;;;;;;0.24;100.00;102423.09;5052335;28;20468;-64
2023/03/03 05:52:23;;;;;;;28.85;11.85;;;;;;;0.26;100.00;102423.81;5052799;28;20549;-65
2023/03/03 05:54:49;;;;;;;29.13;12.98;;;;;;;0.28;100.00;102434.22;5052132;28;20108;-65
2023/03/03 05:57:14;;;;;;;33.65;15.20;;;;;;;0.28;100.00;102427.19;5052167;28;20124;-64
2023/03/03 05:59:39;;;;;;;26.90;13.88;;;;;;;0.29;100.00;102426.28;5052078;28;20047;-64
2023/03/03 06:02:05;;;;;;;25.15;11.70;;;;;;;0.32;100.00;102428.72;5052015;28;20029;-64
2023/03/03 06:04:30;;;;;;;31.25;12.48;;;;;;;0.33;100.00;102429.56;5051971;28;20029;-65
2023/03/03 06:06:56;;;;;;;32.30;14.38;;;;;;;0.34;100.00;102431.22;5051885;28;20422;-65
2023/03/03 06:09:21;;;;;;;28.35;14.73;;;;;;;0.35;100.00;102433.78;5051956;28;20021;-64
2023/03/03 06:11:46;;;;;;;28.10;11.77;;;;;;;0.37;100.00;102436.31;5051110;28;20029;-64
2023/03/03 06:14:12;;;;;;;30.38;14.23;;;;;;;0.37;100.00;102442.41;5051896;28;20361;-65
2023/03/03 06:16:38;;;;;;;30.80;13.43;;;;;;;0.39;100.00;102445.78;5051682;28;20170;-64
2023/03/03 06:19:04;;;;;;;27.23;11.43;;;;;;;0.41;100.00;102437.81;5051737;28;20396;-64
2023/03/03 06:21:29;;;;;;;31.42;13.68;;;;;;;0.36;100.00;102438.09;5051509;28;20065;-64
2023/03/03 06:23:54;;;;;;;28.27;13.30;;;;;;;0.42;100.00;102448.25;5051297;28;20043;-64
2023/03/03 06:26:20;;;;;;;29.75;13.88;;;;;;;0.45;100.00;102457.72;5051361;28;20064;-64
2023/03/03 06:28:45;;;;;;;26.52;10.70;;;;;;;0.46;100.00;102453.28;5051356;28;20064;-65
2023/03/03 06:31:11;;;;;;;31.05;13.43;;;;;;;0.49;100.00;102463.59;5051279;28;20049;-64
2023/03/03 06:33:37;;;;;;;34.17;13.98;;;;;;;0.50;100.00;102455.66;5051487;28;20025;-64
2023/03/03 06:36:02;;;;;;;30.08;13.88;;;;;;;0.50;100.00;102460.91;5051374;28;20033;-64
2023/03/03 06:38:28;;;;;;;27.95;12.07;;;;;;;0.56;100.00;102464.94;5051729;28;20095;-64
2023/03/03 06:40:53;;;;;;;29.70;12.10;;;;;;;0.55;100.00;102469.34;5051179;28;20550;-64
2023/03/03 06:43:19;;;;;;;30.35;12.18;;;;;;;0.59;100.00;102478.72;5050972;28;20068;-64
2023/03/03 06:45:45;;;;;;;28.73;12.52;;;;;;;0.58;100.00;102487.53;5050995;28;20036;-64
2023/03/03 06:48:11;;;;;;;24.92;12.10;;;;;;;0.63;100.00;102489.91;5051047;28;20033;-65
2023/03/03 06:50:38;;;;;;;28.25;13.15;;;;;;;0.64;100.00;102486.34;5050917;28;20091;-64
2023/03/03 06:53:09;;;;;;;31.85;14.52;;;;;;;0.64;100.00;102486.34;5051045;28;20119;-64
2023/03/03 06:55:35;;;;;;;30.10;14.02;;;;;;;0.66;100.00;102489.72;5051150;28;20563;-64
2023/03/03 06:58:01;;;;;;;35.97;14.27;;;;;;;0.68;100.00;102494.84;5050778;28;20028;-64
2023/03/03 07:00:27;;;;;;;28.92;14.73;;;;;;;0.71;100.00;102489.41;5050891;28;20029;-64
2023/03/03 07:03:04;;;;;;;31.38;14.32;;;;;;;0.73;100.00;102492.81;5050874;28;20037;-65
2023/03/03 07:05:31;;;;;;;29.75;12.48;;;;;;;0.75;100.00;102491.78;5050701;28;20037;-64
2023/03/03 07:07:57;;;;;;;27.63;11.93;;;;;;;0.78;100.00;102498.63;5050515;28;20032;-65
2023/03/03 07:10:26;;;;;;;35.05;14.90;;;;;;;0.78;100.00;102499.47;5050935;28;20032;-65
2023/03/03 07:12:53;;;;;;;31.88;13.48;;;;;;;0.76;100.00;102490.84;5050517;28;20025;-64
2023/03/03 07:15:34;;;;;;;32.78;13.30;;;;;;;0.83;100.00;102494.78;5050576;28;20122;-64
2023/03/03 07:18:01;;;;;;;23.80;12.10;;;;;;;0.85;100.00;102497.31;5050276;28;20033;-64
2023/03/03 07:20:37;;;;;;;26.00;11.90;;;;;;;0.87;100.00;102496.28;5050342;28;20110;-70
2023/03/03 07:23:24;;;;;;;31.20;12.95;;;;;;;0.92;100.00;102497.78;5049029;28;20407;-70
2023/03/03 07:25:51;;;;;;;31.33;11.13;;;;;;;0.92;100.00;102510.91;5049984;28;20056;-69
2023/03/03 07:28:25;;;;;;;25.15;11.13;;;;;;;0.95;100.00;102508.13;5050390;28;20384;-71
2023/03/03 07:30:56;;;;;;;26.75;12.48;;;;;;;0.93;100.00;102515.25;5050244;28;20031;-73
2023/03/03 07:33:33;;;;;;;25.90;9.77;;;;;;;1.00;100.00;102513.94;5050248;28;20029;-68
2023/03/03 07:36:01;;;;;;;23.80;10.63;;;;;;;1.01;100.00;102518.25;5043196;28;20179;-73
2023/03/03 07:38:33;;;;;;;28.20;12.98;;;;;;;1.04;100.00;102515.44;5044214;28;20039;-70
2023/03/03 07:41:01;;;;;;;27.92;12.65;;;;;;;1.01;100.00;102516.47;5044020;28;20063;-74
2023/03/03 07:43:37;;;;;;;26.25;12.90;;;;;;;1.05;100.00;102528.50;5043990;28;20032;-73
2023/03/03 07:46:09;;;;;;;34.20;13.95;;;;;;;1.04;100.00;102528.56;5101079;27;20404;-72
2023/03/03 07:48:40;;;;;;;30.00;11.55;;;;;;;1.04;100.00;102528.56;5089806;28;20039;-65
2023/03/03 07:51:21;;;;;;;30.10;9.95;;;;;;;1.04;100.00;102533.81;5089795;28;20048;-67
2023/03/03 07:53:47;;;;;;;29.50;11.82;;;;;;;1.01;100.00;102534.03;5089925;28;20016;-67
2023/03/03 07:56:29;;;;;;;24.20;10.88;;;;;;;1.07;100.00;102533.63;5088911;28;20383;-67
2023/03/03 07:58:56;;;;;;;27.10;12.20;;;;;;;1.10;100.00;102541.31;5089861;28;20032;-69
2023/03/03 08:01:41;;;;;;;24.23;11.15;;;;;;;1.11;100.00;102539.56;5089740;28;20233;-67
2023/03/03 08:04:34;;;;;;;24.58;11.75;;;;;;;1.15;100.00;102544.53;5088676;28;20473;-67
2023/03/03 08:07:01;;;;;;;31.75;11.75;;;;;;;1.23;100.00;102546.69;5088352;28;20952;-67
2023/03/03 08:09:42;;;;;;;26.80;12.70;;;;;;;1.20;100.00;102545.09;5089829;28;20479;-67
2023/03/03 08:12:35;;;;;;;26.20;13.98;;;;;;;1.27;100.00;102549.03;5089677;28;20032;-67
2023/03/03 08:15:16;;;;;;;29.55;13.65;;;;;;;1.28;100.00;102544.63;5088991;28;20032;-67
2023/03/03 08:17:42;;;;;;;31.60;12.27;;;;;;;1.36;100.00;102554.66;5090200;28;20478;-67
2023/03/03 08:20:28;;;;;;;33.10;13.65;;;;;;;1.36;100.00;102545.00;5089670;28;20020;-67
2023/03/03 08:22:53;;;;;;;34.97;14.40;;;;;;;1.35;100.00;102555.63;5088847;28;20035;-66
2023/03/03 08:25:19;;;;;;;29.27;13.90;;;;;;;1.37;100.00;102546.69;5088120;28;20048;-66
2023/03/03 08:27:44;;;;;;;32.58;14.02;;;;;;;1.41;100.00;102549.97;5089781;28;20100;-67
2023/03/03 08:30:10;;;;;;;27.42;13.43;;;;;;;1.44;100.00;102553.28;5089130;28;20032;-67
2023/03/03 08:32:35;;;;;;;28.63;12.15;;;;;;;1.34;100.00;102549.53;5088848;28;20514;-66
2023/03/03 08:35:01;;;;;;;32.00;11.43;;;;;;;1.46;100.00;102564.50;5089205;28;20036;-67
2023/03/03 08:37:26;;;;;;;28.30;12.18;;;;;;;1.46;100.00;102575.03;5088119;28;20282;-67
2023/03/03 08:39:51;;;;;;;31.10;14.75;;;;;;;1.39;100.00;102571.13;5088558;28;20032;-67
2023/03/03 08:42:17;;;;;;;27.83;13.15;;;;;;;1.44;100.00;102574.31;5090573;28;20028;-67
2023/03/03 08:44:42;;;;;;;22.23;9.60;;;;;;;1.45;100.00;102580.41;5088429;28;20143;-67
2023/03/03 08:47:08;;;;;;;28.38;10.55;;;;;;;1.42;100.00;102554.31;5087652;28;20113;-66
2023/03/03 08:49:33;;;;;;;25.45;10.45;;;;;;;1.52;100.00;102581.72;5089402;28;20032;-67
2023/03/03 08:51:59;;;;;;;25.15;11.20;;;;;;;1.48;100.00;102577.56;5088933;28;20028;-68
2023/03/03 08:54:25;;;;;;;27.45;11.50;;;;;;;1.57;100.00;102579.63;5087765;28;20028;-64
2023/03/03 08:56:50;;;;;;;21.83;8.25;;;;;;;1.62;100.00;102580.19;5078424;28;20043;-66
2023/03/03 08:59:16;;;;;;;21.83;8.98;;;;;;;1.68;100.00;102577.19;5075389;28;20035;-66
2023/03/03 09:01:43;;;;;;;24.27;10.38;;;;;;;1.77;100.00;102586.28;5075860;28;20108;-66
2023/03/03 09:04:09;;;;;;;26.30;9.55;;;;;;;1.85;100.00;102580.53;5075006;28;20033;-66
2023/03/03 09:06:34;;;;;;;25.77;10.88;;;;;;;1.81;100.00;102581.66;5074827;28;20584;-66
2023/03/03 09:09:00;;;;;;;26.15;10.23;;;;;;;1.80;100.00;102582.63;5074237;28;20032;-67
2023/03/03 09:11:28;;;;;;;25.38;11.35;;;;;;;1.81;100.00;102584.28;5075494;28;20070;-67
2023/03/03 09:14:01;;;;;;;22.27;9.52;;;;;;;1.80;100.00;102590.50;5075102;28;20449;-67
2023/03/03 09:16:33;;;;;;;24.77;11.05;;;;;;;1.83;100.00;102590.31;5072914;28;20027;-66
2023/03/03 09:19:15;;;;;;;21.85;7.55;;;;;;;1.81;100.00;102582.53;5076315;28;20069;-66
2023/03/03 09:21:41;;;;;;;24.15;9.77;;;;;;;1.80;100.00;102587.88;5074484;28;20384;-67
2023/03/03 09:24:23;;;;;;;20.55;8.73;;;;;;;1.82;100.00;102578.94;5073964;28;20025;-68
2023/03/03 09:26:48;;;;;;;;;;;;;;;1.90;100.00;102592.47;5073382;28;20025;-66
2023/03/03 09:29:13;;;;;;;22.57;10.37;;;;;;;1.92;100.00;102592.38;5072116;28;20330;-67
2023/03/03 09:31:42;;;;;;;24.48;9.75;;;;;;;1.99;100.00;102598.91;5072242;28;20621;-67
2023/03/03 09:34:23;;;;;;;27.17;9.57;;;;;;;2.06;100.00;102594.97;5091358;28;20051;-67
2023/03/03 09:36:51;;;;;;;24.50;10.87;;;;;;;2.15;100.00;102601.44;5091402;28;20020;-67
2023/03/03 09:39:29;;;;;;;20.48;8.85;;;;;;;2.16;100.00;102595.22;5091459;28;20390;-67
2023/03/03 09:42:16;;;;;;;20.80;9.50;;;;;;;2.25;100.00;102612.22;5091173;28;20020;-67
2023/03/03 09:44:41;;;;;;;19.67;9.23;;;;;;;2.13;100.00;102613.84;5090895;28;20931;-67
2023/03/03 09:47:34;;;;;;;22.08;7.72;;;;;;;2.12;100.00;102610.38;5089779;28;20032;-67
2023/03/03 09:50:06;;;;;;;22.23;8.73;;;;;;;2.17;100.00;102608.28;5091085;28;20057;-67
2023/03/03 09:52:53;;;;;;;21.27;9.88;;;;;;;2.18;100.00;102609.13;5091108;28;20096;-67
2023/03/03 09:55:21;;;;;;;19.50;9.13;;;;;;;2.22;100.00;102604.50;5091063;28;20027;-67
2023/03/03 09:58:04;;;;;;;18.58;7.57;;;;;;;2.26;100.00;102604.22;5091066;28;20391;-67
2023/03/03 10:00:54;;;;;;;20.83;7.38;;;;;;;2.37;100.00;102611.41;5090832;28;20924;-67
2023/03/03 10:03:45;;;;;;;22.80;10.25;;;;;;;2.41;100.00;102610.25;5090994;28;20062;-67
2023/03/03 10:06:13;;;;;;;22.60;8.85;;;;;;;2.44;100.00;102604.81;5084943;28;20389;-73
2023/03/03 10:09:08;;;;;;;23.38;9.95;;;;;;;2.54;100.00;102612.94;5081782;28;20391;-70
2023/03/03 10:11:53;;;;;;;22.27;8.73;;;;;;;2.52;100.00;102612.22;5090600;28;20020;-71
2023/03/03 10:14:26;;;;;;;23.38;8.88;;;;;;;2.53;100.00;102612.09;5085003;28;20033;-71
2023/03/03 10:17:10;;;;;;;23.25;8.45;;;;;;;2.57;100.00;102616.25;5071390;28;20103;-71
2023/03/03 10:19:45;;;;;;;20.50;7.50;;;;;;;2.66;100.00;102612.16;5071229;28;20078;-70
2023/03/03 10:22:13;;;;;;;21.60;8.07;;;;;;;2.70;100.00;102612.78;5090449;28;20027;-70
2023/03/03 10:24:53;;;;;;;19.00;7.43;;;;;;;2.75;100.00;102618.59;5090119;28;20031;-70
2023/03/03 10:27:40;;;;;;;18.40;7.38;;;;;;;2.77;100.00;102620.16;5090504;28;20024;-70
2023/03/03 10:30:33;;;;;;;21.50;9.32;;;;;;;2.76;100.00;102612.38;5090121;28;20501;-70
2023/03/03 10:33:21;;;;;;;21.42;8.68;;;;;;;2.85;100.00;102614.41;5090319;28;20424;-70
2023/03/03 10:35:50;;;;;;;19.60;7.82;;;;;;;2.93;100.00;102619.16;5090088;28;20035;-70
2023/03/03 10:38:49;;;;;;;18.50;8.57;;;;;;;3.01;100.00;102620.34;5090025;28;20077;-70
2023/03/03 10:41:33;;;;;;;20.60;6.80;;;;;;;3.11;100.00;102630.25;5069118;28;20400;-70
2023/03/03 10:44:07;;;;;;;18.10;8.45;;;;;;;3.15;100.00;102619.41;5089829;28;20467;-70
2023/03/03 10:46:41;;;;;;;18.58;7.72;;;;;;;3.24;100.00;102617.91;5089619;28;20024;-70
2023/03/03 10:49:15;;;;;;;18.40;8.10;;;;;;;3.22;100.00;102612.78;5089753;28;20541;-70
2023/03/03 10:52:08;;;;;;;25.42;8.70;;;;;;;3.24;100.00;102616.13;5089708;28;20027;-70
2023/03/03 10:55:01;;;;;;;19.98;7.43;;;;;;;3.25;100.00;102617.81;5089593;28;20027;-70
2023/03/03 10:57:44;;;;;;;21.10;8.55;;;;;;;3.32;100.00;102615.59;5089630;28;20059;-70
2023/03/03 11:00:34;;;;;;;22.38;9.60;;;;;;;3.29;100.00;102621.09;5089623;28;20027;-70
2023/03/03 11:03:38;;;;;;;21.30;7.35;;;;;;;3.32;100.00;102617.41;5089471;28;20132;-70
2023/03/03 11:06:09;;;;;;;22.63;8.70;;;;;;;3.50;100.00;102614.31;5089463;28;20059;-70
2023/03/03 11:08:42;;;;;;;21.03;6.83;;;;;;;3.63;100.00;102622.22;5089553;28;20479;-70
2023/03/03 11:11:19;;;;;;;19.17;8.05;;;;;;;3.74;99.61;102614.41;5089538;28;20032;-70
2023/03/03 11:13:54;;;;;;;22.02;7.65;;;;;;;3.75;98.85;102609.97;5089336;28;20024;-70
2023/03/03 11:16:46;;;;;;;17.40;7.85;;;;;;;3.90;99.40;102608.03;5089452;28;20067;-70
2023/03/03 11:19:25;;;;;;;;;;;;;;;4.12;99.69;102604.72;5089551;28;20024;-70
2023/03/03 11:22:06;;;;;;;18.88;8.88;;;;;;;4.19;98.43;102608.56;5089116;28;19908;-68